sensor_id;sensor_type;location;lat;lon;timestamp;pressure;altitude;pressure_sealevel;temperature;humidity
23164;BME280;31429;42.674;23.350;2024-03-07T00:00:45;94476.69;;;8.37;100.00
23164;BME280;31429;42.674;23.350;2024-03-07T00:02:06;94473.97;;;8.41;100.00
23164;BME280;31429;42.674;23.350;2024-03-07T00:03:07;94477.56;;;8.36;100.00
23164;BME280;31429;42.674;23.350;2024-03-07T00:04:09;94472.56;;;8.33;100.00
23164;BME280;31429;42.674;23.350;2024-03-07T00:05:11;94473.34;;;8.35;100.00
23164;BME280;31429;42.674;23.350;2024-03-07T00:06:32;94474.28;;;8.32;100.00
23164;BME280;31429;42.674;23.350;2024-03-07T00:07:33;94468.88;;;8.41;100.00
23164;BME280;31429;42.674;23.350;2024-03-07T00:08:35;94466.31;;;8.43;100.00
23164;BME280;31429;42.674;23.350;2024-03-07T00:09:38;94464.00;;;8.35;100.00
23164;BME280;31429;42.674;23.350;2024-03-07T00:10:39;94466.31;;;8.43;100.00
23164;BME280;31429;42.674;23.350;2024-03-07T00:11:39;94461.03;;;8.47;100.00
23164;BME280;31429;42.674;23.350;2024-03-07T00:12:41;94461.97;;;8.45;100.00
23164;BME280;31429;42.674;23.350;2024-03-07T00:13:42;94467.28;;;8.39;100.00
23164;BME280;31429;42.674;23.350;2024-03-07T00:14:43;94464.06;;;8.34;100.00
23164;BME280;31429;42.674;23.350;2024-03-07T00:15:44;94460.56;;;8.36;100.00
23164;BME280;31429;42.674;23.350;2024-03-07T00:16:44;94460.31;;;8.44;100.00
23164;BME280;31429;42.674;23.350;2024-03-07T00:17:45;94455.09;;;8.47;100.00
23164;BME280;31429;42.674;23.350;2024-03-07T00:18:46;94461.88;;;8.48;100.00
23164;BME280;31429;42.674;23.350;2024-03-07T00:19:46;94450.19;;;8.42;100.00
23164;BME280;31429;42.674;23.350;2024-03-07T00:20:48;94448.50;;;8.41;100.00
23164;BME280;31429;42.674;23.350;2024-03-07T00:21:49;94452.88;;;8.38;100.00
23164;BME280;31429;42.674;23.350;2024-03-07T00:22:50;94446.69;;;8.45;100.00
23164;BME280;31429;42.674;23.350;2024-03-07T00:23:50;94447.44;;;8.48;100.00
23164;BME280;31429;42.674;23.350;2024-03-07T00:24:53;94443.59;;;8.37;100.00
23164;BME280;31429;42.674;23.350;2024-03-07T00:25:53;94454.91;;;8.27;100.00
23164;BME280;31429;42.674;23.350;2024-03-07T00:26:54;94449.88;;;8.25;100.00
23164;BME280;31429;42.674;23.350;2024-03-07T00:27:55;94449.06;;;8.25;100.00
23164;BME280;31429;42.674;23.350;2024-03-07T00:28:57;94444.34;;;8.39;100.00
23164;BME280;31429;42.674;23.350;2024-03-07T00:29:58;94450.22;;;8.41;100.00
23164;BME280;31429;42.674;23.350;2024-03-07T00:30:59;94446.91;;;8.39;100.00
23164;BME280;31429;42.674;23.350;2024-03-07T00:32:00;94449.75;;;8.30;100.00
23164;BME280;31429;42.674;23.350;2024-03-07T00:33:01;94443.47;;;8.40;100.00
23164;BME280;31429;42.674;23.350;2024-03-07T00:34:02;94449.47;;;8.37;100.00
23164;BME280;31429;42.674;23.350;2024-03-07T00:35:04;94439.16;;;8.42;100.00
23164;BME280;31429;42.674;23.350;2024-03-07T00:36:05;94439.25;;;8.39;100.00
23164;BME280;31429;42.674;23.350;2024-03-07T00:37:07;94441.81;;;8.39;100.00
23164;BME280;31429;42.674;23.350;2024-03-07T00:38:08;94447.00;;;8.36;100.00
23164;BME280;31429;42.674;23.350;2024-03-07T00:39:09;94445.50;;;8.30;100.00
23164;BME280;31429;42.674;23.350;2024-03-07T00:40:13;94447.97;;;8.32;100.00
23164;BME280;31429;42.674;23.350;2024-03-07T00:41:14;94449.88;;;8.25;100.00
23164;BME280;31429;42.674;23.350;2024-03-07T00:42:16;94446.34;;;8.31;100.00
23164;BME280;31429;42.674;23.350;2024-03-07T00:43:17;94454.16;;;8.25;100.00
23164;BME280;31429;42.674;23.350;2024-03-07T00:44:18;94443.06;;;8.27;100.00
23164;BME280;31429;42.674;23.350;2024-03-07T00:45:19;94445.59;;;8.27;100.00
23164;BME280;31429;42.674;23.350;2024-03-07T00:46:19;94453.31;;;8.24;100.00
23164;BME280;31429;42.674;23.350;2024-03-07T00:47:20;94444.81;;;8.25;100.00
23164;BME280;31429;42.674;23.350;2024-03-07T00:48:21;94442.28;;;8.24;100.00
23164;BME280;31429;42.674;23.350;2024-03-07T00:49:22;94438.00;;;8.26;100.00
23164;BME280;31429;42.674;23.350;2024-03-07T00:50:22;94448.69;;;8.37;100.00
23164;BME280;31429;42.674;23.350;2024-03-07T00:51:23;94444.41;;;8.37;100.00
23164;BME280;31429;42.674;23.350;2024-03-07T00:52:24;94439.38;;;8.36;100.00
23164;BME280;31429;42.674;23.350;2024-03-07T00:53:25;94447.38;;;8.24;100.00
23164;BME280;31429;42.674;23.350;2024-03-07T00:54:27;94434.28;;;9.05;100.00
23164;BME280;31429;42.674;23.350;2024-03-07T00:55:29;94442.63;;;8.64;100.00
23164;BME280;31429;42.674;23.350;2024-03-07T00:56:30;94444.03;;;8.48;100.00
23164;BME280;31429;42.674;23.350;2024-03-07T00:57:30;94452.94;;;8.36;100.00
23164;BME280;31429;42.674;23.350;2024-03-07T00:58:31;94449.63;;;8.34;100.00
23164;BME280;31429;42.674;23.350;2024-03-07T00:59:32;94448.09;;;8.29;100.00
23164;BME280;31429;42.674;23.350;2024-03-07T01:00:33;94440.69;;;8.46;100.00
23164;BME280;31429;42.674;23.350;2024-03-07T01:01:33;94441.34;;;8.76;100.00
23164;BME280;31429;42.674;23.350;2024-03-07T01:02:36;94435.91;;;8.61;100.00
23164;BME280;31429;42.674;23.350;2024-03-07T01:03:39;94439.41;;;8.82;100.00
23164;BME280;31429;42.674;23.350;2024-03-07T01:04:40;94438.38;;;8.63;100.00
23164;BME280;31429;42.674;23.350;2024-03-07T01:05:41;94434.69;;;8.95;100.00
23164;BME280;31429;42.674;23.350;2024-03-07T01:06:42;94437.84;;;9.01;100.00
23164;BME280;31429;42.674;23.350;2024-03-07T01:07:43;94437.31;;;8.93;100.00
23164;BME280;31429;42.674;23.350;2024-03-07T01:08:46;94445.78;;;8.71;100.00
23164;BME280;31429;42.674;23.350;2024-03-07T01:09:47;94446.56;;;8.73;100.00
23164;BME280;31429;42.674;23.350;2024-03-07T01:10:49;94439.69;;;8.75;100.00
23164;BME280;31429;42.674;23.350;2024-03-07T01:11:50;94447.19;;;8.54;100.00
23164;BME280;31429;42.674;23.350;2024-03-07T01:12:51;94440.16;;;8.61;100.00
23164;BME280;31429;42.674;23.350;2024-03-07T01:13:54;94444.09;;;8.46;100.00
23164;BME280;31429;42.674;23.350;2024-03-07T01:14:55;94434.03;;;8.90;100.00
23164;BME280;31429;42.674;23.350;2024-03-07T01:15:57;94435.84;;;8.63;100.00
23164;BME280;31429;42.674;23.350;2024-03-07T01:16:58;94436.44;;;8.46;100.00
23164;BME280;31429;42.674;23.350;2024-03-07T01:17:59;94442.44;;;8.45;100.00
23164;BME280;31429;42.674;23.350;2024-03-07T01:19:00;94441.03;;;8.37;100.00
23164;BME280;31429;42.674;23.350;2024-03-07T01:20:00;94434.19;;;8.37;100.00
23164;BME280;31429;42.674;23.350;2024-03-07T01:21:03;94439.66;;;8.51;100.00
23164;BME280;31429;42.674;23.350;2024-03-07T01:22:05;94438.47;;;8.61;100.00
23164;BME280;31429;42.674;23.350;2024-03-07T01:23:06;94435.59;;;8.46;100.00
23164;BME280;31429;42.674;23.350;2024-03-07T01:24:08;94440.28;;;8.58;100.00
23164;BME280;31429;42.674;23.350;2024-03-07T01:25:09;94424.94;;;8.83;100.00
23164;BME280;31429;42.674;23.350;2024-03-07T01:26:11;94438.13;;;8.71;100.00
23164;BME280;31429;42.674;23.350;2024-03-07T01:27:12;94430.38;;;8.50;100.00
23164;BME280;31429;42.674;23.350;2024-03-07T01:28:13;94432.94;;;8.74;100.00
23164;BME280;31429;42.674;23.350;2024-03-07T01:29:14;94434.06;;;8.42;100.00
23164;BME280;31429;42.674;23.350;2024-03-07T01:30:16;94430.69;;;8.41;100.00
23164;BME280;31429;42.674;23.350;2024-03-07T01:31:17;94432.34;;;8.42;100.00
23164;BME280;31429;42.674;23.350;2024-03-07T01:32:18;94439.81;;;8.22;100.00
23164;BME280;31429;42.674;23.350;2024-03-07T01:33:19;94429.53;;;8.25;100.00
23164;BME280;31429;42.674;23.350;2024-03-07T01:34:20;94430.75;;;8.40;100.00
23164;BME280;31429;42.674;23.350;2024-03-07T01:35:21;94430.34;;;8.26;100.00
23164;BME280;31429;42.674;23.350;2024-03-07T01:36:21;94427.84;;;8.24;100.00
23164;BME280;31429;42.674;23.350;2024-03-07T01:37:23;94421.31;;;8.17;100.00
23164;BME280;31429;42.674;23.350;2024-03-07T01:38:23;94419.53;;;8.19;100.00
23164;BME280;31429;42.674;23.350;2024-03-07T01:39:25;94421.09;;;8.23;100.00
23164;BME280;31429;42.674;23.350;2024-03-07T01:40:26;94422.19;;;8.16;100.00
23164;BME280;31429;42.674;23.350;2024-03-07T01:41:29;94419.25;;;8.28;100.00
23164;BME280;31429;42.674;23.350;2024-03-07T01:42:29;94418.78;;;8.17;100.00
23164;BME280;31429;42.674;23.350;2024-03-07T01:43:30;94415.63;;;8.09;100.00
23164;BME280;31429;42.674;23.350;2024-03-07T01:44:31;94413.31;;;8.52;100.00
23164;BME280;31429;42.674;23.350;2024-03-07T01:45:33;94417.59;;;8.27;100.00
23164;BME280;31429;42.674;23.350;2024-03-07T01:46:33;94413.81;;;8.37;100.00
23164;BME280;31429;42.674;23.350;2024-03-07T01:47:34;94417.63;;;8.26;100.00
23164;BME280;31429;42.674;23.350;2024-03-07T01:48:37;94407.53;;;8.23;100.00
23164;BME280;31429;42.674;23.350;2024-03-07T01:49:38;94406.25;;;8.36;100.00
23164;BME280;31429;42.674;23.350;2024-03-07T01:50:39;94406.44;;;8.54;100.00
23164;BME280;31429;42.674;23.350;2024-03-07T01:51:40;94409.88;;;8.29;100.00
23164;BME280;31429;42.674;23.350;2024-03-07T01:52:41;94408.34;;;8.23;100.00
23164;BME280;31429;42.674;23.350;2024-03-07T01:53:42;94406.19;;;8.37;100.00
23164;BME280;31429;42.674;23.350;2024-03-07T01:54:43;94409.34;;;8.19;100.00
23164;BME280;31429;42.674;23.350;2024-03-07T01:55:44;94417.88;;;8.18;100.00
23164;BME280;31429;42.674;23.350;2024-03-07T01:56:46;94417.25;;;8.12;100.00
23164;BME280;31429;42.674;23.350;2024-03-07T01:57:47;94421.09;;;7.98;100.00
23164;BME280;31429;42.674;23.350;2024-03-07T01:58:49;94429.38;;;8.03;100.00
23164;BME280;31429;42.674;23.350;2024-03-07T01:59:52;94421.06;;;8.00;100.00
23164;BME280;31429;42.674;23.350;2024-03-07T02:00:53;94422.19;;;8.16;100.00
23164;BME280;31429;42.674;23.350;2024-03-07T02:01:54;94420.81;;;8.06;100.00
23164;BME280;31429;42.674;23.350;2024-03-07T02:02:54;94424.41;;;8.00;100.00
23164;BME280;31429;42.674;23.350;2024-03-07T02:03:55;94425.59;;;7.90;100.00
23164;BME280;31429;42.674;23.350;2024-03-07T02:04:56;94420.50;;;7.90;100.00
23164;BME280;31429;42.674;23.350;2024-03-07T02:05:57;94429.00;;;7.89;100.00
23164;BME280;31429;42.674;23.350;2024-03-07T02:06:57;94421.09;;;7.98;100.00
23164;BME280;31429;42.674;23.350;2024-03-07T02:07:59;94428.03;;;7.93;100.00
23164;BME280;31429;42.674;23.350;2024-03-07T02:08:59;94432.50;;;7.87;100.00
23164;BME280;31429;42.674;23.350;2024-03-07T02:10:03;94431.75;;;7.83;100.00
23164;BME280;31429;42.674;23.350;2024-03-07T02:11:04;94430.47;;;7.72;100.00
23164;BME280;31429;42.674;23.350;2024-03-07T02:12:07;94425.75;;;7.60;100.00
23164;BME280;31429;42.674;23.350;2024-03-07T02:13:09;94432.38;;;7.65;100.00
23164;BME280;31429;42.674;23.350;2024-03-07T02:14:10;94427.03;;;7.73;100.00
23164;BME280;31429;42.674;23.350;2024-03-07T02:15:10;94423.25;;;7.84;100.00
23164;BME280;31429;42.674;23.350;2024-03-07T02:16:11;94423.25;;;7.84;100.00
23164;BME280;31429;42.674;23.350;2024-03-07T02:17:12;94418.84;;;7.89;100.00
23164;BME280;31429;42.674;23.350;2024-03-07T02:18:13;94413.84;;;7.86;100.00
23164;BME280;31429;42.674;23.350;2024-03-07T02:19:14;94411.41;;;7.83;100.00
23164;BME280;31429;42.674;23.350;2024-03-07T02:20:16;94412.72;;;7.95;100.00
23164;BME280;31429;42.674;23.350;2024-03-07T02:21:18;94404.38;;;8.16;100.00
23164;BME280;31429;42.674;23.350;2024-03-07T02:22:19;94411.81;;;8.22;100.00
23164;BME280;31429;42.674;23.350;2024-03-07T02:23:19;94420.16;;;8.01;100.00
23164;BME280;31429;42.674;23.350;2024-03-07T02:24:20;94413.16;;;8.07;100.00
23164;BME280;31429;42.674;23.350;2024-03-07T02:25:21;94420.56;;;8.40;100.00
23164;BME280;31429;42.674;23.350;2024-03-07T02:26:22;94429.97;;;8.61;100.00
23164;BME280;31429;42.674;23.350;2024-03-07T02:27:23;94428.63;;;8.28;100.00
23164;BME280;31429;42.674;23.350;2024-03-07T02:28:24;94426.41;;;8.17;100.00
23164;BME280;31429;42.674;23.350;2024-03-07T02:29:24;94425.16;;;8.29;100.00
23164;BME280;31429;42.674;23.350;2024-03-07T02:30:25;94428.72;;;8.23;100.00
23164;BME280;31429;42.674;23.350;2024-03-07T02:31:26;94424.13;;;8.59;100.00
23164;BME280;31429;42.674;23.350;2024-03-07T02:32:35;94437.94;;;8.52;100.00
23164;BME280;31429;42.674;23.350;2024-03-07T02:33:37;94431.41;;;8.91;100.00
23164;BME280;31429;42.674;23.350;2024-03-07T02:34:38;94443.50;;;8.86;100.00
23164;BME280;31429;42.674;23.350;2024-03-07T02:35:39;94446.66;;;8.93;100.00
23164;BME280;31429;42.674;23.350;2024-03-07T02:36:41;94456.78;;;8.48;100.00
23164;BME280;31429;42.674;23.350;2024-03-07T02:37:41;94464.38;;;8.23;100.00
23164;BME280;31429;42.674;23.350;2024-03-07T02:38:42;94458.47;;;8.23;100.00
23164;BME280;31429;42.674;23.350;2024-03-07T02:39:43;94473.03;;;7.93;100.00
23164;BME280;31429;42.674;23.350;2024-03-07T02:40:44;94470.81;;;7.82;100.00
23164;BME280;31429;42.674;23.350;2024-03-07T02:41:44;94473.94;;;7.64;100.00
23164;BME280;31429;42.674;23.350;2024-03-07T02:42:45;94473.63;;;7.47;100.00
23164;BME280;31429;42.674;23.350;2024-03-07T02:43:46;94473.63;;;7.47;100.00
23164;BME280;31429;42.674;23.350;2024-03-07T02:44:47;94475.47;;;7.70;100.00
23164;BME280;31429;42.674;23.350;2024-03-07T02:45:48;94470.66;;;7.61;100.00
23164;BME280;31429;42.674;23.350;2024-03-07T02:46:50;94472.78;;;7.74;100.00
23164;BME280;31429;42.674;23.350;2024-03-07T02:47:51;94480.81;;;7.61;100.00
23164;BME280;31429;42.674;23.350;2024-03-07T02:48:52;94474.03;;;7.33;100.00
23164;BME280;31429;42.674;23.350;2024-03-07T02:49:52;94465.06;;;7.22;100.00
23164;BME280;31429;42.674;23.350;2024-03-07T02:50:53;94474.38;;;7.23;100.00
23164;BME280;31429;42.674;23.350;2024-03-07T02:51:55;94466.50;;;7.58;100.00
23164;BME280;31429;42.674;23.350;2024-03-07T02:52:56;94472.66;;;7.51;100.00
23164;BME280;31429;42.674;23.350;2024-03-07T02:53:57;94464.53;;;7.40;100.00
23164;BME280;31429;42.674;23.350;2024-03-07T02:54:58;94457.34;;;7.25;100.00
23164;BME280;31429;42.674;23.350;2024-03-07T02:55:59;94462.63;;;7.19;100.00
23164;BME280;31429;42.674;23.350;2024-03-07T02:57:00;94454.38;;;7.38;100.00
23164;BME280;31429;42.674;23.350;2024-03-07T02:58:01;94457.00;;;7.37;100.00
23164;BME280;31429;42.674;23.350;2024-03-07T02:59:02;94453.47;;;7.41;100.00
23164;BME280;31429;42.674;23.350;2024-03-07T03:00:03;94457.66;;;7.43;100.00
23164;BME280;31429;42.674;23.350;2024-03-07T03:01:14;94464.56;;;7.38;100.00
23164;BME280;31429;42.674;23.350;2024-03-07T03:02:15;94464.63;;;7.37;100.00
23164;BME280;31429;42.674;23.350;2024-03-07T03:03:15;94463.88;;;7.33;100.00
23164;BME280;31429;42.674;23.350;2024-03-07T03:04:16;94450.56;;;7.25;100.00
23164;BME280;31429;42.674;23.350;2024-03-07T03:05:18;94459.94;;;7.23;100.00
23164;BME280;31429;42.674;23.350;2024-03-07T03:06:19;94457.25;;;7.28;100.00
23164;BME280;31429;42.674;23.350;2024-03-07T03:07:22;94458.38;;;7.19;100.00
23164;BME280;31429;42.674;23.350;2024-03-07T03:08:24;94455.66;;;7.25;100.00
23164;BME280;31429;42.674;23.350;2024-03-07T03:09:24;94453.28;;;7.19;100.00
23164;BME280;31429;42.674;23.350;2024-03-07T03:10:26;94460.41;;;7.07;100.00
23164;BME280;31429;42.674;23.350;2024-03-07T03:11:29;94461.41;;;7.03;100.00
23164;BME280;31429;42.674;23.350;2024-03-07T03:12:30;94464.94;;;6.97;100.00
23164;BME280;31429;42.674;23.350;2024-03-07T03:13:31;94456.41;;;7.00;100.00
23164;BME280;31429;42.674;23.350;2024-03-07T03:14:32;94447.25;;;6.94;100.00
23164;BME280;31429;42.674;23.350;2024-03-07T03:15:33;94453.13;;;6.96;100.00
23164;BME280;31429;42.674;23.350;2024-03-07T03:16:34;94446.50;;;6.90;100.00
23164;BME280;31429;42.674;23.350;2024-03-07T03:17:35;94442.13;;;6.95;100.00
23164;BME280;31429;42.674;23.350;2024-03-07T03:18:36;94423.22;;;7.04;100.00
23164;BME280;31429;42.674;23.350;2024-03-07T03:19:37;94427.03;;;7.19;100.00
23164;BME280;31429;42.674;23.350;2024-03-07T03:20:37;94424.28;;;7.26;100.00
23164;BME280;31429;42.674;23.350;2024-03-07T03:21:43;94426.16;;;7.20;100.00
23164;BME280;31429;42.674;23.350;2024-03-07T03:22:45;94429.84;;;7.10;100.00
23164;BME280;31429;42.674;23.350;2024-03-07T03:23:46;94434.06;;;7.11;100.00
23164;BME280;31429;42.674;23.350;2024-03-07T03:24:48;94433.38;;;7.06;100.00
23164;BME280;31429;42.674;23.350;2024-03-07T03:25:49;94437.78;;;6.99;100.00
23164;BME280;31429;42.674;23.350;2024-03-07T03:26:50;94436.03;;;7.01;100.00
23164;BME280;31429;42.674;23.350;2024-03-07T03:27:51;94442.09;;;6.97;100.00
23164;BME280;31429;42.674;23.350;2024-03-07T03:28:51;94445.56;;;6.94;100.00
23164;BME280;31429;42.674;23.350;2024-03-07T03:29:53;94450.72;;;6.91;100.00
23164;BME280;31429;42.674;23.350;2024-03-07T03:30:53;94455.97;;;6.85;100.00
23164;BME280;31429;42.674;23.350;2024-03-07T03:31:55;94455.06;;;6.88;100.00
23164;BME280;31429;42.674;23.350;2024-03-07T03:32:56;94457.75;;;6.82;100.00
23164;BME280;31429;42.674;23.350;2024-03-07T03:33:56;94448.38;;;6.84;100.00
23164;BME280;31429;42.674;23.350;2024-03-07T03:34:57;94443.78;;;6.97;100.00
23164;BME280;31429;42.674;23.350;2024-03-07T03:35:58;94445.75;;;6.87;100.00
23164;BME280;31429;42.674;23.350;2024-03-07T03:36:59;94443.19;;;6.88;100.00
23164;BME280;31429;42.674;23.350;2024-03-07T03:38:01;94438.00;;;6.91;100.00
23164;BME280;31429;42.674;23.350;2024-03-07T03:39:02;94444.66;;;6.95;100.00
23164;BME280;31429;42.674;23.350;2024-03-07T03:41:22;94457.59;;;6.88;100.00
23164;BME280;31429;42.674;23.350;2024-03-07T03:42:23;94469.63;;;6.81;100.00
23164;BME280;31429;42.674;23.350;2024-03-07T03:43:24;94474.25;;;6.67;100.00
23164;BME280;31429;42.674;23.350;2024-03-07T03:44:25;94470.06;;;6.66;100.00
23164;BME280;31429;42.674;23.350;2024-03-07T03:45:25;94457.66;;;6.86;100.00
23164;BME280;31429;42.674;23.350;2024-03-07T03:46:26;94444.75;;;6.92;100.00
23164;BME280;31429;42.674;23.350;2024-03-07T03:47:27;94442.25;;;6.91;100.00
23164;BME280;31429;42.674;23.350;2024-03-07T03:48:28;94437.09;;;6.94;100.00
23164;BME280;31429;42.674;23.350;2024-03-07T03:49:29;94426.06;;;6.95;100.00
23164;BME280;31429;42.674;23.350;2024-03-07T03:50:30;94423.97;;;7.08;100.00
23164;BME280;31429;42.674;23.350;2024-03-07T03:51:31;94415.81;;;6.98;100.00
23164;BME280;31429;42.674;23.350;2024-03-07T03:52:32;94420.91;;;6.97;100.00
23164;BME280;31429;42.674;23.350;2024-03-07T03:53:35;94421.88;;;6.92;100.00
23164;BME280;31429;42.674;23.350;2024-03-07T03:54:35;94418.47;;;6.93;100.00
23164;BME280;31429;42.674;23.350;2024-03-07T03:55:36;94416.69;;;6.97;100.00
23164;BME280;31429;42.674;23.350;2024-03-07T03:56:37;94425.81;;;7.03;100.00
23164;BME280;31429;42.674;23.350;2024-03-07T03:57:40;94418.19;;;7.03;100.00
23164;BME280;31429;42.674;23.350;2024-03-07T03:58:42;94425.75;;;7.04;100.00
23164;BME280;31429;42.674;23.350;2024-03-07T03:59:43;94425.81;;;7.03;100.00
23164;BME280;31429;42.674;23.350;2024-03-07T04:00:45;94430.66;;;7.12;100.00
23164;BME280;31429;42.674;23.350;2024-03-07T04:01:46;94427.44;;;7.05;100.00
23164;BME280;31429;42.674;23.350;2024-03-07T04:02:46;94422.94;;;7.41;100.00
23164;BME280;31429;42.674;23.350;2024-03-07T04:03:48;94428.59;;;7.23;100.00
23164;BME280;31429;42.674;23.350;2024-03-07T04:04:49;94438.81;;;7.21;100.00
23164;BME280;31429;42.674;23.350;2024-03-07T04:05:50;94428.66;;;7.49;100.00
23164;BME280;31429;42.674;23.350;2024-03-07T04:06:50;94435.22;;;7.28;100.00
23164;BME280;31429;42.674;23.350;2024-03-07T04:07:51;94443.19;;;7.16;100.00
23164;BME280;31429;42.674;23.350;2024-03-07T04:08:53;94439.00;;;7.15;100.00
23164;BME280;31429;42.674;23.350;2024-03-07T04:09:56;94435.53;;;7.18;100.00
23164;BME280;31429;42.674;23.350;2024-03-07T04:10:56;94443.34;;;7.12;100.00
23164;BME280;31429;42.674;23.350;2024-03-07T04:11:57;94440.41;;;7.24;100.00
23164;BME280;31429;42.674;23.350;2024-03-07T04:12:59;94439.09;;;7.12;100.00
23164;BME280;31429;42.674;23.350;2024-03-07T04:14:00;94444.44;;;7.03;100.00
23164;BME280;31429;42.674;23.350;2024-03-07T04:15:02;94444.31;;;7.08;100.00
23164;BME280;31429;42.674;23.350;2024-03-07T04:16:05;94449.97;;;7.17;100.00
23164;BME280;31429;42.674;23.350;2024-03-07T04:17:05;94458.47;;;7.16;100.00
23164;BME280;31429;42.674;23.350;2024-03-07T04:18:08;94462.44;;;7.52;100.00
23164;BME280;31429;42.674;23.350;2024-03-07T04:19:09;94462.59;;;7.46;100.00
23164;BME280;31429;42.674;23.350;2024-03-07T04:20:11;94464.28;;;7.20;100.00
23164;BME280;31429;42.674;23.350;2024-03-07T04:21:11;94470.16;;;6.92;100.00
23164;BME280;31429;42.674;23.350;2024-03-07T04:22:12;94464.38;;;7.17;100.00
23164;BME280;31429;42.674;23.350;2024-03-07T04:23:13;94473.13;;;7.07;100.00
23164;BME280;31429;42.674;23.350;2024-03-07T04:24:15;94476.78;;;6.98;100.00
23164;BME280;31429;42.674;23.350;2024-03-07T04:25:16;94476.66;;;7.03;100.00
23164;BME280;31429;42.674;23.350;2024-03-07T04:26:17;94468.03;;;7.07;100.00
23164;BME280;31429;42.674;23.350;2024-03-07T04:27:18;94477.84;;;6.91;100.00
23164;BME280;31429;42.674;23.350;2024-03-07T04:28:19;94476.13;;;6.91;100.00
23164;BME280;31429;42.674;23.350;2024-03-07T04:29:21;94472.13;;;6.83;100.00
23164;BME280;31429;42.674;23.350;2024-03-07T04:30:21;94478.44;;;6.99;100.00
23164;BME280;31429;42.674;23.350;2024-03-07T04:31:22;94474.50;;;6.89;100.00
23164;BME280;31429;42.674;23.350;2024-03-07T04:32:23;94468.69;;;6.85;100.00
23164;BME280;31429;42.674;23.350;2024-03-07T04:33:23;94473.78;;;6.84;100.00
23164;BME280;31429;42.674;23.350;2024-03-07T04:34:24;94476.81;;;6.97;100.00
23164;BME280;31429;42.674;23.350;2024-03-07T04:35:25;94472.59;;;6.95;100.00
23164;BME280;31429;42.674;23.350;2024-03-07T04:36:26;94476.91;;;6.93;100.00
23164;BME280;31429;42.674;23.350;2024-03-07T04:37:26;94480.44;;;6.89;100.00
23164;BME280;31429;42.674;23.350;2024-03-07T04:38:27;94465.81;;;7.25;100.00
23164;BME280;31429;42.674;23.350;2024-03-07T04:39:30;94466.59;;;7.27;100.00
23164;BME280;31429;42.674;23.350;2024-03-07T04:40:33;94476.94;;;7.21;100.00
23164;BME280;31429;42.674;23.350;2024-03-07T04:41:35;94481.06;;;6.96;100.00
23164;BME280;31429;42.674;23.350;2024-03-07T04:42:36;94482.59;;;7.02;100.00
23164;BME280;31429;42.674;23.350;2024-03-07T04:43:37;94481.06;;;6.96;100.00
23164;BME280;31429;42.674;23.350;2024-03-07T04:44:38;94483.00;;;6.88;100.00
23164;BME280;31429;42.674;23.350;2024-03-07T04:45:39;94484.94;;;6.78;100.00
23164;BME280;31429;42.674;23.350;2024-03-07T04:46:40;94489.38;;;6.72;100.00
23164;BME280;31429;42.674;23.350;2024-03-07T04:47:43;94489.38;;;6.72;100.00
23164;BME280;31429;42.674;23.350;2024-03-07T04:48:47;94489.38;;;6.72;100.00
23164;BME280;31429;42.674;23.350;2024-03-07T04:49:48;94497.63;;;6.80;100.00
23164;BME280;31429;42.674;23.350;2024-03-07T04:50:49;94489.03;;;6.84;100.00
23164;BME280;31429;42.674;23.350;2024-03-07T04:51:50;94485.94;;;6.74;100.00
23164;BME280;31429;42.674;23.350;2024-03-07T04:52:51;94485.16;;;6.71;100.00
23164;BME280;31429;42.674;23.350;2024-03-07T04:53:52;94478.84;;;6.85;100.00
23164;BME280;31429;42.674;23.350;2024-03-07T04:54:54;94481.84;;;6.69;100.00
23164;BME280;31429;42.674;23.350;2024-03-07T04:55:55;94485.22;;;6.69;100.00
23164;BME280;31429;42.674;23.350;2024-03-07T04:56:56;94476.88;;;6.64;100.00
23164;BME280;31429;42.674;23.350;2024-03-07T04:57:57;94472.34;;;7.05;100.00
23164;BME280;31429;42.674;23.350;2024-03-07T04:58:58;94475.34;;;6.89;100.00
23164;BME280;31429;42.674;23.350;2024-03-07T04:59:58;94470.53;;;6.80;100.00
23164;BME280;31429;42.674;23.350;2024-03-07T05:00:59;94478.38;;;6.71;100.00
23164;BME280;31429;42.674;23.350;2024-03-07T05:02:00;94481.59;;;6.78;100.00
23164;BME280;31429;42.674;23.350;2024-03-07T05:03:02;94482.75;;;6.66;100.00
23164;BME280;31429;42.674;23.350;2024-03-07T05:04:04;94485.41;;;6.62;100.00
23164;BME280;31429;42.674;23.350;2024-03-07T05:05:05;94489.84;;;6.55;100.00
23164;BME280;31429;42.674;23.350;2024-03-07T05:06:06;94488.22;;;6.53;100.00
23164;BME280;31429;42.674;23.350;2024-03-07T05:07:07;94491.56;;;6.53;100.00
23164;BME280;31429;42.674;23.350;2024-03-07T05:08:08;94492.72;;;6.42;100.00
23164;BME280;31429;42.674;23.350;2024-03-07T05:09:09;94492.53;;;6.49;100.00
23164;BME280;31429;42.674;23.350;2024-03-07T05:10:11;94485.38;;;6.94;100.00
23164;BME280;31429;42.674;23.350;2024-03-07T05:11:12;94486.19;;;7.24;100.00
23164;BME280;31429;42.674;23.350;2024-03-07T05:12:13;94493.78;;;7.25;100.00
23164;BME280;31429;42.674;23.350;2024-03-07T05:13:14;94497.81;;;7.03;100.00
23164;BME280;31429;42.674;23.350;2024-03-07T05:14:15;94508.41;;;6.88;100.00
23164;BME280;31429;42.674;23.350;2024-03-07T05:15:17;94514.88;;;6.67;100.00
23164;BME280;31429;42.674;23.350;2024-03-07T05:16:17;94507.81;;;6.48;100.00
23164;BME280;31429;42.674;23.350;2024-03-07T05:17:20;94504.78;;;6.66;100.00
23164;BME280;31429;42.674;23.350;2024-03-07T05:18:22;94506.00;;;6.83;100.00
23164;BME280;31429;42.674;23.350;2024-03-07T05:19:23;94493.47;;;7.36;100.00
23164;BME280;31429;42.674;23.350;2024-03-07T05:20:24;94501.28;;;7.01;100.00
23164;BME280;31429;42.674;23.350;2024-03-07T05:21:25;94504.94;;;6.90;100.00
23164;BME280;31429;42.674;23.350;2024-03-07T05:22:39;94507.44;;;6.61;100.00